Time;durP1;ratioP1;P1;durP2;ratioP2;P2;SDS_P1;SDS_P2;PMS_P1;PMS_P2;Temp;Humidity;BMP_temperature;BMP_pressure;BME280_temperature;BME280_humidity;BME280_pressure;Samples;Min_cycle;Max_cycle;Signal;HPM_P1;HPM_P2
2023/08/11 00:00:33;;;;;;;;;;;19.40;99.90;;;;;;8411849;28;19928;-68
2023/08/11 00:04:34;;;;;;;;;;;19.40;99.90;;;;;;8421057;28;19932;-68
2023/08/11 00:08:38;;;;;;;;;;;19.40;99.90;;;;;;8411891;28;20001;-68
2023/08/11 00:12:39;;;;;;;;;;;19.30;99.90;;;;;;8419954;28;19977;-68
2023/08/11 00:16:41;;;;;;;;;;;19.30;99.90;;;;;;8405730;28;19924;-68
2023/08/11 00:20:43;;;;;;;;;;;19.30;99.90;;;;;;8403413;28;20758;-68
2023/08/11 00:24:45;;;;;;;;;;;19.30;99.90;;;;;;8403664;28;20279;-68
2023/08/11 00:28:46;;;;;;;;;;;19.30;99.90;;;;;;8419377;28;19931;-68
2023/08/11 00:32:48;;;;;;;;;;;19.20;99.90;;;;;;8430286;28;19950;-68
2023/08/11 00:36:50;;;;;;;;;;;19.20;99.90;;;;;;8431006;28;19923;-69
2023/08/11 00:40:52;;;;;;;;;;;19.20;99.90;;;;;;8435943;28;19924;-68
2023/08/11 00:44:53;;;;;;;;;;;19.10;99.90;;;;;;8406273;28;19931;-68
2023/08/11 00:48:55;;;;;;;;;;;19.10;99.90;;;;;;8412655;28;19924;-68
2023/08/11 00:53:00;;;;;;;;;;;19.10;99.90;;;;;;8420503;28;19928;-69
2023/08/11 00:57:03;;;;;;;;;;;19.10;99.90;;;;;;8423716;28;19924;-68
2023/08/11 01:01:05;;;;;;;;;;;19.10;99.90;;;;;;8420955;28;20026;-68
2023/08/11 01:05:08;;;;;;;;;;;19.00;99.90;;;;;;8424102;28;19924;-68
2023/08/11 01:09:09;;;;;;;;;;;19.00;99.90;;;;;;8421864;28;20375;-68
2023/08/11 01:13:14;;;;;;;;;;;19.00;99.90;;;;;;8443725;28;20379;-68
2023/08/11 01:17:17;;;;;;;;;;;19.00;99.90;;;;;;8431890;28;19924;-68
2023/08/11 01:21:19;;;;;;;;;;;18.90;99.90;;;;;;8433175;28;19932;-68
2023/08/11 01:25:21;;;;;;;;;;;18.90;99.90;;;;;;8414364;28;19924;-68
2023/08/11 01:29:23;;;;;;;;;;;18.80;99.90;;;;;;8415391;28;20042;-68
2023/08/11 01:33:25;;;;;;;;;;;18.80;99.90;;;;;;8432495;27;20295;-68
2023/08/11 01:37:26;;;;;;;;;;;18.80;99.90;;;;;;8429553;28;19925;-68
2023/08/11 01:41:28;;;;;;;;;;;18.80;99.90;;;;;;8427242;28;19925;-68
2023/08/11 01:45:30;;;;;;;;;;;18.70;99.90;;;;;;8434741;28;19924;-68
2023/08/11 01:49:31;;;;;;;;;;;18.70;99.90;;;;;;8426706;28;19935;-68
2023/08/11 01:53:33;;;;;;;;;;;18.70;99.90;;;;;;8439264;28;19924;-68
2023/08/11 01:57:35;;;;;;;;;;;18.70;99.90;;;;;;8431864;28;20325;-68
2023/08/11 02:01:40;;;;;;;;;;;18.70;99.90;;;;;;8417076;28;20272;-68
2023/08/11 02:05:41;;;;;;;;;;;18.70;99.90;;;;;;8429515;28;19924;-68
2023/08/11 02:09:43;;;;;;;;;;;18.60;99.90;;;;;;8421111;28;19924;-68
2023/08/11 02:13:45;;;;;;;;;;;18.60;99.90;;;;;;8434806;28;19924;-69
2023/08/11 02:17:46;;;;;;;;;;;18.50;99.90;;;;;;8442571;28;19923;-68
2023/08/11 02:21:49;;;;;;;;;;;18.50;99.90;;;;;;8437482;28;19924;-69
2023/08/11 02:25:51;;;;;;;;;;;18.50;99.90;;;;;;8426048;28;19932;-68
2023/08/11 02:29:53;;;;;;;;;;;18.50;99.90;;;;;;8427496;28;19925;-68
2023/08/11 02:33:54;;;;;;;;;;;18.40;99.90;;;;;;8434364;28;19924;-68
2023/08/11 02:37:56;;;;;;;;;;;18.40;99.90;;;;;;8431294;28;19924;-68
2023/08/11 02:41:58;;;;;;;;;;;18.40;99.90;;;;;;8425219;28;19939;-68
2023/08/11 02:45:59;;;;;;;;;;;18.40;99.90;;;;;;8432047;28;20302;-68
2023/08/11 02:50:04;;;;;;;;;;;18.40;99.90;;;;;;8439220;28;19930;-68
2023/08/11 02:54:05;;;;;;;;;;;18.30;99.90;;;;;;8425154;28;19930;-68
2023/08/11 02:58:07;;;;;;;;;;;18.20;99.90;;;;;;8406377;28;19928;-68
2023/08/11 03:02:09;;;;;;;;;;;18.10;99.90;;;;;;8419249;28;19988;-68
2023/08/11 03:06:11;;;;;;;;;;;18.10;99.90;;;;;;8429667;28;20384;-68
2023/08/11 03:10:12;;;;;;;;;;;18.10;99.90;;;;;;8420197;28;20257;-68
2023/08/11 03:14:14;;;;;;;;;;;18.00;99.90;;;;;;8439682;28;19924;-68
2023/08/11 03:18:16;;;;;;;;;;;18.00;99.90;;;;;;8441299;28;19977;-68
2023/08/11 03:22:17;;;;;;;;;;;18.00;99.90;;;;;;8427943;28;19935;-68
2023/08/11 03:26:19;;;;;;;;;;;18.00;99.90;;;;;;8418314;28;19924;-68
2023/08/11 03:30:21;;;;;;;;;;;18.00;99.90;;;;;;8428472;28;19931;-68
2023/08/11 03:34:22;;;;;;;;;;;18.00;99.90;;;;;;8414081;28;19923;-68
2023/08/11 03:38:24;;;;;;;;;;;18.00;99.90;;;;;;8411249;28;19932;-68
2023/08/11 03:42:26;;;;;;;;;;;18.00;99.90;;;;;;8416456;28;19924;-68
2023/08/11 03:46:28;;;;;;;;;;;18.00;99.90;;;;;;8409068;28;19954;-68
2023/08/11 03:50:30;;;;;;;;;;;18.00;99.90;;;;;;8415230;28;20376;-68
2023/08/11 03:54:31;;;;;;;;;;;18.00;99.90;;;;;;8410035;28;19997;-68
2023/08/11 03:58:45;;;;;;;;;;;18.00;99.90;;;;;;8433909;28;20011;-68
2023/08/11 04:02:47;;;;;;;;;;;18.00;99.90;;;;;;8426347;28;19928;-68
2023/08/11 04:06:48;;;;;;;;;;;17.90;99.90;;;;;;8412274;28;19948;-68
2023/08/11 04:10:50;;;;;;;;;;;17.90;99.90;;;;;;8410244;28;19935;-69
2023/08/11 04:14:52;;;;;;;;;;;17.90;99.90;;;;;;8419847;28;19928;-69
2023/08/11 04:18:53;;;;;;;;;;;17.90;99.90;;;;;;8402750;28;19930;-68
2023/08/11 04:22:55;;;;;;;;;;;17.90;99.90;;;;;;8435862;28;19970;-69
2023/08/11 04:26:57;;;;;;;;;;;17.80;99.90;;;;;;8380066;28;19935;-68
2023/08/11 04:31:00;;;;;;;;;;;17.80;99.90;;;;;;8413657;28;20300;-69
2023/08/11 04:35:05;;;;;;;;;;;17.80;99.90;;;;;;8413780;28;19928;-69
2023/08/11 04:39:06;;;;;;;;;;;17.80;99.90;;;;;;8429139;28;19932;-69
2023/08/11 04:43:08;;;;;;;;;;;17.70;99.90;;;;;;8434220;28;20281;-69
2023/08/11 04:47:10;;;;;;;;;;;17.70;99.90;;;;;;8415640;28;19970;-69
2023/08/11 04:51:11;;;;;;;;;;;17.70;99.90;;;;;;8433470;28;20445;-69
2023/08/11 04:55:13;;;;;;;;;;;17.70;99.90;;;;;;8427486;28;19931;-69
2023/08/11 04:59:15;;;;;;;;;;;17.70;99.90;;;;;;8425297;28;19927;-69
2023/08/11 05:03:17;;;;;;;;;;;17.70;99.90;;;;;;8423159;28;20375;-69
2023/08/11 05:07:18;;;;;;;;;;;17.70;99.90;;;;;;8445614;28;19997;-69
2023/08/11 05:11:20;;;;;;;;;;;17.70;99.90;;;;;;8421143;28;19924;-68
2023/08/11 05:15:22;;;;;;;;;;;17.70;99.90;;;;;;8423476;28;19924;-69
2023/08/11 05:19:25;;;;;;;;;;;17.80;99.90;;;;;;8448226;28;19924;-69
2023/08/11 05:23:27;;;;;;;;;;;17.80;99.90;;;;;;8417056;28;19929;-69
2023/08/11 05:27:28;;;;;;;;;;;17.80;99.90;;;;;;8403623;28;19927;-69
2023/08/11 05:31:30;;;;;;;;;;;17.90;99.90;;;;;;8419912;28;19924;-69
2023/08/11 05:35:32;;;;;;;;;;;18.00;99.90;;;;;;8434506;28;20375;-69
2023/08/11 05:39:33;;;;;;;;;;;18.00;99.90;;;;;;8435025;28;19924;-69
2023/08/11 05:43:38;;;;;;;;;;;18.10;99.90;;;;;;8426089;28;19970;-69
2023/08/11 05:47:40;;;;;;;;;;;18.20;99.90;;;;;;8423878;28;19923;-69
2023/08/11 05:51:41;;;;;;;;;;;18.20;99.90;;;;;;8428128;28;19974;-68
2023/08/11 05:55:43;;;;;;;;;;;18.30;99.90;;;;;;8424195;28;19979;-68
2023/08/11 05:59:45;;;;;;;;;;;18.40;99.90;;;;;;8440516;28;19954;-69
2023/08/11 06:03:46;;;;;;;;;;;18.50;99.90;;;;;;8424170;28;19991;-68
2023/08/11 06:07:48;;;;;;;;;;;18.60;99.90;;;;;;8421466;28;20015;-68
2023/08/11 06:12:04;;;;;;;;;;;18.70;99.90;;;;;;8434029;28;19924;-68
2023/08/11 06:16:06;;;;;;;;;;;18.80;99.90;;;;;;8435052;28;19924;-68
2023/08/11 06:20:10;;;;;;;;;;;18.90;99.90;;;;;;8428485;28;20006;-68
2023/08/11 06:24:13;;;;;;;;;;;19.00;99.90;;;;;;8431502;28;19957;-69
2023/08/11 06:28:15;;;;;;;;;;;19.10;99.90;;;;;;8441273;28;20053;-68
2023/08/11 06:32:16;;;;;;;;;;;19.20;99.90;;;;;;8427113;28;20005;-69
2023/08/11 06:36:18;;;;;;;;;;;19.30;99.90;;;;;;8435069;28;19985;-69
2023/08/11 06:40:20;;;;;;;;;;;19.40;99.90;;;;;;8446439;27;19931;-69
2023/08/11 06:44:22;;;;;;;;;;;19.40;99.90;;;;;;8422128;28;20287;-69
2023/08/11 06:48:23;;;;;;;;;;;19.50;99.90;;;;;;8439910;28;19923;-69
2023/08/11 06:52:25;;;;;;;;;;;19.60;99.90;;;;;;8435515;28;19928;-68
2023/08/11 06:56:27;;;;;;;;;;;19.70;99.90;;;;;;8411233;28;19932;-69
2023/08/11 07:00:29;;;;;;;;;;;19.80;99.90;;;;;;8389276;28;19939;-69
2023/08/11 07:04:30;;;;;;;;;;;19.80;99.90;;;;;;8369512;28;20272;-69
2023/08/11 07:08:32;;;;;;;;;;;20.00;99.90;;;;;;8378474;28;19937;-69
2023/08/11 07:12:33;;;;;;;;;;;20.10;99.90;;;;;;8412791;27;20372;-68
2023/08/11 07:16:35;;;;;;;;;;;20.10;99.90;;;;;;8401494;28;19928;-69
2023/08/11 07:20:41;;;;;;;;;;;20.20;99.90;;;;;;8403197;28;19935;-68
2023/08/11 07:24:43;;;;;;;;;;;20.20;99.90;;;;;;8410546;28;19969;-69
2023/08/11 07:28:45;;;;;;;;;;;20.30;99.90;;;;;;8390678;28;19925;-69
2023/08/11 07:32:47;;;;;;;;;;;20.30;99.90;;;;;;8392410;28;19932;-69
2023/08/11 07:36:49;;;;;;;;;;;20.40;99.90;;;;;;8400064;28;20027;-68
2023/08/11 07:40:52;;;;;;;;;;;20.50;99.90;;;;;;8399771;28;19925;-68
2023/08/11 07:44:53;;;;;;;;;;;20.60;99.90;;;;;;8384965;28;19999;-69
2023/08/11 07:48:55;;;;;;;;;;;20.60;99.90;;;;;;8389722;28;19928;-69
2023/08/11 07:52:57;;;;;;;;;;;20.70;99.90;;;;;;8389955;28;19928;-69
2023/08/11 07:56:59;;;;;;;;;;;20.80;99.90;;;;;;8407388;27;19982;-69
2023/08/11 08:01:02;;;;;;;;;;;20.90;99.90;;;;;;8387666;28;20293;-69
2023/08/11 08:05:04;;;;;;;;;;;21.10;99.90;;;;;;8388589;28;21108;-69
2023/08/11 08:09:14;;;;;;;;;;;21.20;99.90;;;;;;8391976;28;19923;-69
2023/08/11 08:13:17;;;;;;;;;;;21.30;99.90;;;;;;8389786;28;19935;-69
2023/08/11 08:17:18;;;;;;;;;;;21.40;99.90;;;;;;8396071;28;19932;-69
2023/08/11 08:21:20;;;;;;;;;;;21.40;99.90;;;;;;8399319;28;19943;-69
2023/08/11 08:25:21;;;;;;;;;;;21.50;99.90;;;;;;8389748;28;19959;-69
2023/08/11 08:29:23;;;;;;;;;;;21.70;99.90;;;;;;8390946;28;20296;-69
2023/08/11 08:33:25;;;;;;;;;;;21.70;99.90;;;;;;8386728;28;19971;-69
2023/08/11 08:37:28;;;;;;;;;;;21.80;99.90;;;;;;8390175;28;19940;-70
2023/08/11 08:41:31;;;;;;;;;;;21.90;99.90;;;;;;8390608;28;20035;-70
2023/08/11 08:45:33;;;;;;;;;;;22.00;99.90;;;;;;8389684;28;19932;-70
2023/08/11 08:49:38;;;;;;;;;;;22.10;99.90;;;;;;8375876;28;19986;-70
2023/08/11 08:53:40;;;;;;;;;;;22.10;99.90;;;;;;8386387;28;19928;-70
2023/08/11 08:57:42;;;;;;;;;;;22.20;99.90;;;;;;8390056;28;19928;-70
2023/08/11 09:01:44;;;;;;;;;;;22.40;99.90;;;;;;8393682;28;19924;-70
2023/08/11 09:05:45;;;;;;;;;;;22.50;99.90;;;;;;8395812;28;20357;-68
2023/08/11 09:09:47;;;;;;;;;;;22.60;99.90;;;;;;8402161;28;19924;-69
2023/08/11 09:13:48;;;;;;;;;;;22.80;99.90;;;;;;8402878;28;19928;-68
2023/08/11 09:17:50;;;;;;;;;;;22.90;99.90;;;;;;8404493;28;19928;-67
2023/08/11 09:21:52;;;;;;;;;;;23.00;99.90;;;;;;8410809;28;19978;-68
2023/08/11 09:25:54;;;;;;;;;;;23.00;99.90;;;;;;8405888;28;19979;-69
2023/08/11 09:29:59;;;;;;;;;;;23.10;99.90;;;;;;8405312;28;20682;-69
2023/08/11 09:34:09;;;;;;;;;;;23.10;99.90;;;;;;8402806;28;20872;-70
2023/08/11 09:38:11;;;;;;;;;;;23.20;99.90;;;;;;8405440;28;19928;-70
2023/08/11 09:42:15;;;;;;;;;;;23.30;99.90;;;;;;8403746;28;20307;-69
2023/08/11 09:46:16;;;;;;;;;;;23.40;99.90;;;;;;8396830;28;20002;-70
2023/08/11 09:50:28;;;;;;;;;;;23.40;99.90;;;;;;8402919;28;20022;-70
2023/08/11 09:54:30;;;;;;;;;;;23.50;99.90;;;;;;8403163;28;19932;-70
2023/08/11 09:58:33;;;;;;;;;;;23.60;99.90;;;;;;8398707;28;20001;-70
2023/08/11 10:02:35;;;;;;;;;;;23.60;99.90;;;;;;8376492;28;20541;-69
2023/08/11 10:06:38;;;;;;;;;;;23.70;99.90;;;;;;8402913;28;20295;-70
2023/08/11 10:10:40;;;;;;;;;;;23.80;99.90;;;;;;8398346;28;20391;-70
2023/08/11 10:14:42;;;;;;;;;;;23.90;99.90;;;;;;8400238;28;20529;-70
2023/08/11 10:18:44;;;;;;;;;;;24.00;99.90;;;;;;8399790;28;20394;-70
2023/08/11 10:22:46;;;;;;;;;;;24.10;99.90;;;;;;8396726;28;19932;-69
2023/08/11 10:26:48;;;;;;;;;;;24.20;99.90;;;;;;8394585;28;19932;-70
2023/08/11 10:30:56;;;;;;;;;;;24.20;99.90;;;;;;8397745;28;19981;-69
2023/08/11 10:34:58;;;;;;;;;;;24.30;99.90;;;;;;8397030;28;19928;-69
2023/08/11 10:39:00;;;;;;;;;;;24.50;99.90;;;;;;8398101;28;19939;-69
2023/08/11 10:43:02;;;;;;;;;;;24.60;99.90;;;;;;8399230;28;20440;-69
2023/08/11 10:47:05;;;;;;;;;;;24.70;99.90;;;;;;8393035;28;20280;-69
2023/08/11 10:51:21;;;;;;;;;;;24.80;99.90;;;;;;8377809;28;19924;-70
2023/08/11 10:55:23;;;;;;;;;;;24.80;99.90;;;;;;8392912;28;19928;-69
2023/08/11 10:59:27;;;;;;;;;;;24.80;99.90;;;;;;8385945;28;19944;-70
2023/08/11 11:03:28;;;;;;;;;;;24.90;99.90;;;;;;8394996;28;19938;-70
2023/08/11 11:07:38;;;;;;;;;;;25.00;99.90;;;;;;8409830;28;19986;-69
2023/08/11 11:11:39;;;;;;;;;;;25.10;99.90;;;;;;8393401;28;20566;-70
2023/08/11 11:15:41;;;;;;;;;;;25.20;99.90;;;;;;8405341;27;20333;-70
2023/08/11 11:19:43;;;;;;;;;;;25.30;99.90;;;;;;8409344;27;20026;-69
2023/08/11 11:23:45;;;;;;;;;;;25.30;99.90;;;;;;8396686;28;19928;-69
2023/08/11 11:27:47;;;;;;;;;;;25.40;99.90;;;;;;8392509;28;19927;-69
2023/08/11 11:31:49;;;;;;;;;;;25.50;99.90;;;;;;8394685;28;19924;-70
2023/08/11 11:35:52;;;;;;;;;;;25.60;99.90;;;;;;8391205;28;19977;-70
2023/08/11 11:39:53;;;;;;;;;;;25.70;99.90;;;;;;8389887;28;19928;-69
2023/08/11 11:43:55;;;;;;;;;;;25.70;99.90;;;;;;8392571;28;19925;-70
2023/08/11 11:47:57;;;;;;;;;;;25.80;99.90;;;;;;8385505;28;19950;-71
2023/08/11 11:52:02;;;;;;;;;;;25.90;99.90;;;;;;8390929;28;19934;-70
2023/08/11 11:56:04;;;;;;;;;;;25.90;99.90;;;;;;8390512;28;20368;-71
2023/08/11 12:00:16;;;;;;;;;;;26.00;99.90;;;;;;8399208;28;20411;-71
2023/08/11 12:04:17;;;;;;;;;;;26.10;99.90;;;;;;8392656;28;20356;-71
2023/08/11 12:08:22;;;;;;;;;;;26.10;99.90;;;;;;8394104;28;20600;-71
2023/08/11 12:12:24;;;;;;;;;;;26.20;99.90;;;;;;8390413;28;19971;-71
2023/08/11 12:16:26;;;;;;;;;;;26.20;99.90;;;;;;8394697;28;19935;-71
2023/08/11 12:20:28;;;;;;;;;;;26.30;99.90;;;;;;8399112;28;19924;-71
2023/08/11 12:24:30;;;;;;;;;;;26.40;99.90;;;;;;8385507;28;19935;-71
2023/08/11 12:28:32;;;;;;;;;;;26.50;99.90;;;;;;8405748;28;19974;-71
2023/08/11 12:32:33;;;;;;;;;;;26.50;99.90;;;;;;8391749;28;19928;-71
2023/08/11 12:36:35;;;;;;;;;;;26.60;99.90;;;;;;8391796;28;19963;-71
2023/08/11 12:40:37;;;;;;;;;;;26.60;99.90;;;;;;8404615;28;19924;-71
2023/08/11 12:44:39;;;;;;;;;;;26.60;99.90;;;;;;8390341;28;19932;-71
2023/08/11 12:48:41;;;;;;;;;;;26.70;99.90;;;;;;8389087;28;19928;-71
2023/08/11 12:52:42;;;;;;;;;;;26.80;99.90;;;;;;8392163;28;19928;-71
2023/08/11 12:56:45;;;;;;;;;;;26.80;99.90;;;;;;8390483;28;19936;-71
2023/08/11 13:00:46;;;;;;;;;;;26.80;99.90;;;;;;8400183;28;19964;-71
2023/08/11 13:04:48;;;;;;;;;;;26.70;99.90;;;;;;8382141;28;19930;-70
2023/08/11 13:08:50;;;;;;;;;;;26.70;99.90;;;;;;8390766;28;19932;-69
2023/08/11 13:12:52;;;;;;;;;;;26.70;99.90;;;;;;8405361;28;19932;-70
2023/08/11 13:16:53;;;;;;;;;;;26.60;99.90;;;;;;8410651;28;20500;-69
2023/08/11 13:20:55;;;;;;;;;;;26.60;99.90;;;;;;8407971;28;19935;-70
2023/08/11 13:24:57;;;;;;;;;;;26.60;99.90;;;;;;8401134;28;19931;-71
2023/08/11 13:28:58;;;;;;;;;;;26.70;99.90;;;;;;8393395;28;19924;-70
2023/08/11 13:33:00;;;;;;;;;;;26.70;99.90;;;;;;8392772;28;19936;-70
2023/08/11 13:37:02;;;;;;;;;;;26.70;99.90;;;;;;8391588;28;19939;-69
2023/08/11 13:41:04;;;;;;;;;;;26.80;99.90;;;;;;8395311;28;19938;-70
2023/08/11 13:45:06;;;;;;;;;;;26.90;99.90;;;;;;8394527;28;20321;-70
2023/08/11 13:49:08;;;;;;;;;;;26.90;99.90;;;;;;8395354;28;19959;-70
2023/08/11 13:53:11;;;;;;;;;;;27.00;99.90;;;;;;8411284;27;19924;-70
2023/08/11 13:57:12;;;;;;;;;;;27.00;99.90;;;;;;8407134;28;19924;-70
2023/08/11 14:01:15;;;;;;;;;;;26.90;99.90;;;;;;8400678;28;20296;-71
2023/08/11 14:05:16;;;;;;;;;;;26.90;99.90;;;;;;8397115;28;20007;-70
2023/08/11 14:09:18;;;;;;;;;;;26.90;99.90;;;;;;8393494;28;20299;-70
2023/08/11 14:13:27;;;;;;;;;;;26.90;99.90;;;;;;8392916;28;19935;-70
2023/08/11 14:17:29;;;;;;;;;;;26.80;99.90;;;;;;8406579;28;19938;-70
2023/08/11 14:21:31;;;;;;;;;;;26.70;99.90;;;;;;8407421;28;19936;-70
2023/08/11 14:25:32;;;;;;;;;;;26.60;99.90;;;;;;8409111;28;19924;-70
2023/08/11 14:29:34;;;;;;;;;;;26.50;99.90;;;;;;8408805;28;19971;-70
2023/08/11 14:33:38;;;;;;;;;;;26.50;99.90;;;;;;8400634;28;19928;-70
2023/08/11 14:37:40;;;;;;;;;;;26.40;99.90;;;;;;8408910;28;19970;-71
2023/08/11 14:41:41;;;;;;;;;;;26.40;99.90;;;;;;8409167;28;19975;-70
2023/08/11 14:45:44;;;;;;;;;;;26.40;99.90;;;;;;8402072;28;19964;-70
2023/08/11 14:49:45;;;;;;;;;;;26.40;99.90;;;;;;8394568;28;20380;-70
2023/08/11 14:53:47;;;;;;;;;;;26.30;99.90;;;;;;8394960;28;19932;-70
2023/08/11 14:57:49;;;;;;;;;;;26.30;99.90;;;;;;8396000;28;20292;-70
2023/08/11 15:01:51;;;;;;;;;;;26.20;99.90;;;;;;8389622;28;19990;-71
2023/08/11 15:05:52;;;;;;;;;;;26.10;99.90;;;;;;8386689;28;20368;-71
2023/08/11 15:09:54;;;;;;;;;;;26.00;99.90;;;;;;8388994;28;19974;-71
2023/08/11 15:13:56;;;;;;;;;;;25.80;99.90;;;;;;8391415;28;19928;-71
2023/08/11 15:17:57;;;;;;;;;;;25.70;99.90;;;;;;8390005;28;19932;-71
2023/08/11 15:21:59;;;;;;;;;;;25.70;99.90;;;;;;8389443;28;19928;-71
2023/08/11 15:26:01;;;;;;;;;;;25.50;99.90;;;;;;8391950;28;19998;-71
2023/08/11 15:30:03;;;;;;;;;;;25.40;99.90;;;;;;8390342;28;19957;-71
2023/08/11 15:34:05;;;;;;;;;;;25.30;99.90;;;;;;8381556;28;19928;-71
2023/08/11 15:38:07;;;;;;;;;;;25.20;99.90;;;;;;8387493;28;19923;-71
2023/08/11 15:42:09;;;;;;;;;;;25.20;99.90;;;;;;8377376;28;19928;-71
2023/08/11 15:46:11;;;;;;;;;;;25.20;99.90;;;;;;8388134;28;19928;-71
2023/08/11 15:50:13;;;;;;;;;;;25.20;99.90;;;;;;8391461;28;19930;-71
2023/08/11 15:54:14;;;;;;;;;;;25.20;99.90;;;;;;8393833;28;19932;-71
2023/08/11 15:58:16;;;;;;;;;;;25.30;99.90;;;;;;8385476;28;19986;-71
2023/08/11 16:02:18;;;;;;;;;;;25.30;99.90;;;;;;8370269;28;20319;-71
2023/08/11 16:06:23;;;;;;;;;;;25.20;99.90;;;;;;8394209;28;19934;-71
2023/08/11 16:10:28;;;;;;;;;;;25.20;99.90;;;;;;8395139;28;19935;-71
2023/08/11 16:14:29;;;;;;;;;;;25.20;99.90;;;;;;8391757;28;20438;-71
2023/08/11 16:18:31;;;;;;;;;;;25.20;99.90;;;;;;8374845;28;19933;-71
2023/08/11 16:22:33;;;;;;;;;;;25.20;99.90;;;;;;8388651;28;19932;-71
2023/08/11 16:26:35;;;;;;;;;;;25.20;99.90;;;;;;8406694;28;19928;-70
2023/08/11 16:30:36;;;;;;;;;;;25.20;99.90;;;;;;8388062;28;20312;-71
2023/08/11 16:34:38;;;;;;;;;;;25.20;99.90;;;;;;8399680;28;19935;-71
2023/08/11 16:38:40;;;;;;;;;;;25.10;99.90;;;;;;8390292;28;20845;-70
2023/08/11 16:42:41;;;;;;;;;;;25.10;99.90;;;;;;8393552;28;19939;-70
2023/08/11 16:46:43;;;;;;;;;;;25.10;99.90;;;;;;8408133;28;19932;-71
2023/08/11 16:50:45;;;;;;;;;;;25.00;99.90;;;;;;8386724;28;19928;-71
2023/08/11 16:54:47;;;;;;;;;;;25.00;99.90;;;;;;8390235;28;19959;-71
2023/08/11 16:58:48;;;;;;;;;;;24.90;99.90;;;;;;8387699;28;19933;-70
2023/08/11 17:02:50;;;;;;;;;;;24.80;99.90;;;;;;8388550;28;20375;-71
2023/08/11 17:06:52;;;;;;;;;;;24.80;99.90;;;;;;8398117;28;19942;-70
2023/08/11 17:10:53;;;;;;;;;;;24.70;99.90;;;;;;8397322;28;19931;-70
2023/08/11 17:14:55;;;;;;;;;;;24.60;99.90;;;;;;8392152;28;19935;-71
2023/08/11 17:18:57;;;;;;;;;;;24.50;99.90;;;;;;8391405;28;19929;-71
2023/08/11 17:22:58;;;;;;;;;;;24.50;99.90;;;;;;8394294;28;20260;-70
2023/08/11 17:27:00;;;;;;;;;;;24.50;99.90;;;;;;8387040;28;19983;-71
2023/08/11 17:31:03;;;;;;;;;;;24.40;99.90;;;;;;8384896;28;19933;-71
2023/08/11 17:35:05;;;;;;;;;;;24.30;99.90;;;;;;8389952;28;19928;-70
2023/08/11 17:39:07;;;;;;;;;;;24.20;99.90;;;;;;8404252;28;19982;-71
2023/08/11 17:43:10;;;;;;;;;;;24.10;99.90;;;;;;8392449;28;20376;-71
2023/08/11 17:47:11;;;;;;;;;;;24.00;99.90;;;;;;8396556;28;19933;-71
2023/08/11 17:51:15;;;;;;;;;;;24.00;99.90;;;;;;8395277;28;20008;-71
2023/08/11 17:55:16;;;;;;;;;;;24.00;99.90;;;;;;8411469;27;19927;-70
2023/08/11 17:59:18;;;;;;;;;;;23.90;99.90;;;;;;8392898;28;19934;-71
2023/08/11 18:03:20;;;;;;;;;;;23.80;99.90;;;;;;8395769;28;20307;-70
2023/08/11 18:07:21;;;;;;;;;;;23.80;99.90;;;;;;8395286;28;19935;-71
2023/08/11 18:11:23;;;;;;;;;;;23.70;99.90;;;;;;8395879;28;19924;-71
2023/08/11 18:15:25;;;;;;;;;;;23.70;99.90;;;;;;8399413;28;20342;-71
2023/08/11 18:19:27;;;;;;;;;;;23.70;99.90;;;;;;8379718;28;20335;-71
2023/08/11 18:23:28;;;;;;;;;;;23.70;99.90;;;;;;8397181;28;19924;-71
2023/08/11 18:27:30;;;;;;;;;;;23.70;99.90;;;;;;8392469;28;19927;-71
2023/08/11 18:31:33;;;;;;;;;;;23.70;99.90;;;;;;8393479;28;19982;-70
2023/08/11 18:35:35;;;;;;;;;;;23.70;99.90;;;;;;8390590;28;19924;-71
2023/08/11 18:39:37;;;;;;;;;;;23.70;99.90;;;;;;8409605;27;20365;-71
2023/08/11 18:43:39;;;;;;;;;;;23.70;99.90;;;;;;8394043;28;19959;-71
2023/08/11 18:47:41;;;;;;;;;;;23.70;99.90;;;;;;8386039;28;19951;-71
2023/08/11 18:51:42;;;;;;;;;;;23.70;99.90;;;;;;8387709;28;20030;-71
2023/08/11 18:55:44;;;;;;;;;;;23.70;99.90;;;;;;8398100;28;19959;-71
2023/08/11 18:59:46;;;;;;;;;;;23.70;99.90;;;;;;8392475;28;20346;-71
2023/08/11 19:03:47;;;;;;;;;;;23.70;99.90;;;;;;8394447;28;19970;-71
2023/08/11 19:07:49;;;;;;;;;;;23.70;99.90;;;;;;8397615;28;19924;-71
2023/08/11 19:11:51;;;;;;;;;;;23.60;99.90;;;;;;8393208;28;19925;-71
2023/08/11 19:15:52;;;;;;;;;;;23.60;99.90;;;;;;8390147;28;19940;-70
2023/08/11 19:19:54;;;;;;;;;;;23.60;99.90;;;;;;8390466;28;20347;-71
2023/08/11 19:23:56;;;;;;;;;;;23.50;99.90;;;;;;8407605;27;20300;-71
2023/08/11 19:27:57;;;;;;;;;;;23.50;99.90;;;;;;8393348;28;20288;-70
2023/08/11 19:31:59;;;;;;;;;;;23.40;99.90;;;;;;8395775;28;20299;-70
2023/08/11 19:36:01;;;;;;;;;;;23.40;99.90;;;;;;8412772;27;20347;-71
2023/08/11 19:40:03;;;;;;;;;;;23.30;99.90;;;;;;8401263;28;19955;-70
2023/08/11 19:44:05;;;;;;;;;;;23.30;99.90;;;;;;8396489;28;20068;-70
2023/08/11 19:48:06;;;;;;;;;;;23.20;99.90;;;;;;8368101;28;20380;-71
2023/08/11 19:52:08;;;;;;;;;;;23.20;99.90;;;;;;8394130;28;20129;-71
2023/08/11 19:56:10;;;;;;;;;;;23.20;99.90;;;;;;8392962;28;19928;-70
2023/08/11 20:00:12;;;;;;;;;;;23.10;99.90;;;;;;8389109;28;19924;-71
2023/08/11 20:04:18;;;;;;;;;;;23.10;99.90;;;;;;8393094;28;20542;-71
2023/08/11 20:08:20;;;;;;;;;;;23.00;99.90;;;;;;8384923;28;19931;-70
2023/08/11 20:12:21;;;;;;;;;;;23.00;99.90;;;;;;8388734;28;19924;-71
2023/08/11 20:16:23;;;;;;;;;;;23.00;99.90;;;;;;8385864;28;19929;-71
2023/08/11 20:20:25;;;;;;;;;;;22.90;99.90;;;;;;8392394;28;19955;-71
2023/08/11 20:24:26;;;;;;;;;;;22.90;99.90;;;;;;8390438;28;19925;-70
2023/08/11 20:28:28;;;;;;;;;;;22.80;99.90;;;;;;8392876;28;19932;-71
2023/08/11 20:32:30;;;;;;;;;;;22.80;99.90;;;;;;8398317;28;19924;-71
2023/08/11 20:36:31;;;;;;;;;;;22.70;99.90;;;;;;8408346;28;19932;-71
2023/08/11 20:40:33;;;;;;;;;;;22.70;99.90;;;;;;8390110;28;19932;-71
2023/08/11 20:44:35;;;;;;;;;;;22.60;99.90;;;;;;8398537;28;19932;-70
2023/08/11 20:48:36;;;;;;;;;;;22.50;99.90;;;;;;8404959;28;19936;-71
2023/08/11 20:52:38;;;;;;;;;;;22.50;99.90;;;;;;8396984;28;20376;-71
2023/08/11 20:56:40;;;;;;;;;;;22.40;99.90;;;;;;8395583;28;20441;-70
2023/08/11 21:00:41;;;;;;;;;;;22.40;99.90;;;;;;8372874;28;19924;-71
2023/08/11 21:04:43;;;;;;;;;;;22.30;99.90;;;;;;8417240;28;19928;-71
2023/08/11 21:08:46;;;;;;;;;;;22.30;99.90;;;;;;8425552;28;19924;-71
2023/08/11 21:12:47;;;;;;;;;;;22.30;99.90;;;;;;8415385;28;19925;-70
2023/08/11 21:16:50;;;;;;;;;;;22.30;99.90;;;;;;8421040;28;20371;-71
2023/08/11 21:20:52;;;;;;;;;;;22.30;99.90;;;;;;8420948;28;19924;-71
2023/08/11 21:24:53;;;;;;;;;;;22.20;99.90;;;;;;8416676;28;19932;-70
2023/08/11 21:28:55;;;;;;;;;;;22.20;99.90;;;;;;8412253;28;19925;-71
2023/08/11 21:32:56;;;;;;;;;;;22.10;99.90;;;;;;8420138;28;19931;-71
2023/08/11 21:37:00;;;;;;;;;;;22.10;99.90;;;;;;8420519;28;20372;-70
2023/08/11 21:41:02;;;;;;;;;;;22.10;99.90;;;;;;8438276;28;19924;-71
2023/08/11 21:45:04;;;;;;;;;;;22.10;99.90;;;;;;8438643;28;20042;-71
2023/08/11 21:49:05;;;;;;;;;;;22.10;99.90;;;;;;8429289;28;19928;-71
2023/08/11 21:53:07;;;;;;;;;;;22.10;99.90;;;;;;8439786;28;19924;-71
2023/08/11 21:57:23;;;;;;;;;;;22.10;99.90;;;;;;8423673;28;19931;-71
2023/08/11 22:01:25;;;;;;;;;;;22.10;99.90;;;;;;8405314;28;19961;-71
2023/08/11 22:05:31;;;;;;;;;;;22.00;99.90;;;;;;8423737;28;19970;-71
2023/08/11 22:09:33;;;;;;;;;;;21.90;99.90;;;;;;8425950;28;19985;-71
2023/08/11 22:13:34;;;;;;;;;;;21.90;99.90;;;;;;8435270;28;20416;-71
2023/08/11 22:17:36;;;;;;;;;;;21.90;99.90;;;;;;8437210;28;19976;-70
2023/08/11 22:21:37;;;;;;;;;;;21.90;99.90;;;;;;8429655;28;20429;-71
2023/08/11 22:25:39;;;;;;;;;;;21.80;99.90;;;;;;8413429;28;19931;-70
2023/08/11 22:29:43;;;;;;;;;;;21.90;99.90;;;;;;8417558;28;19924;-70
2023/08/11 22:33:45;;;;;;;;;;;21.90;99.90;;;;;;8402595;28;20295;-70
2023/08/11 22:37:47;;;;;;;;;;;21.90;99.90;;;;;;8431778;28;19931;-71
2023/08/11 22:41:49;;;;;;;;;;;21.90;99.90;;;;;;8430511;28;20345;-70
2023/08/11 22:45:51;;;;;;;;;;;21.90;99.90;;;;;;8428904;28;19924;-71
2023/08/11 22:49:55;;;;;;;;;;;21.90;99.90;;;;;;8437961;27;19935;-71
2023/08/11 22:53:56;;;;;;;;;;;21.90;99.90;;;;;;8438617;28;19928;-71
2023/08/11 22:57:58;;;;;;;;;;;21.80;99.90;;;;;;8422095;28;19928;-71
2023/08/11 23:02:00;;;;;;;;;;;21.80;99.90;;;;;;8411633;28;19973;-71
2023/08/11 23:06:02;;;;;;;;;;;21.80;99.90;;;;;;8419384;28;20023;-71
2023/08/11 23:10:04;;;;;;;;;;;21.80;99.90;;;;;;8423206;28;20334;-70
2023/08/11 23:14:05;;;;;;;;;;;21.70;99.90;;;;;;8427025;28;19982;-70
2023/08/11 23:18:07;;;;;;;;;;;21.70;99.90;;;;;;8424343;28;19924;-71
2023/08/11 23:22:09;;;;;;;;;;;21.70;99.90;;;;;;8422160;28;19924;-70
2023/08/11 23:26:10;;;;;;;;;;;21.70;99.90;;;;;;8413927;28;19928;-71